Terminal Aerodrome Forecast
Issued by NWS Nashville, TN

Current Version | Previous Version | Text Only | Print | Product List | Glossary Off
Versions: 1 2 3 4 5 6 7 8 9 10 11 12 13 14 15 16 17 18 19 20 21 22 23 24 25

000
FTUS44 KOHX 251725
TAFBNA
TAF
KBNA 251725Z 2518/2618 32012G22KT P6SM SCT040
     FM260000 31005KT P6SM SKC
     FM261200 14006KT P6SM SCT150=

USA.gov is the U.S. government's official web portal to all federal, state and local government web resources and services.